Bayboro, North Carolina
Current Conditions -  °F | °C
As of 6:54 PM on Friday 28 Nov 2014 (Local Time) from KEWN Reporting Station
Clear Clear  
Wind Chill: 35°   Ceiling: Unl
Heat Index: 35°   Visibility: 10mi
Dew Point: 28°   Wind: 0mph
Humidity: 76%   Direction: NA
Pressure: 30.33"   Gusts: NA
Location:  35.14°N, 76.77°W
Report Text: KEWN 282354Z 00000KT 10SM CLR 02/M02 A3033 RMK AO2 SLP270 T00171022 10089 20011 51008
Loading
Personal Weather Stations






























Interactive Weather Map New forecast layout! Learn more

10-Day Weather Forecast

Advertisements
Track Severe Weather on mobile